Cottonwood Station, Arizona
Current Conditions -  °F | °C
As of 8:21 AM on Thursday 18 Dec 2014 (Local Time) from KRQE Reporting Station
Overcast Overcast  
Wind Chill: 32°   Ceiling: 6000
Heat Index: 32°   Visibility: 9mi
Dew Point: 27°   Wind: 0mph
Humidity: 82%   Direction: NA
Pressure: 30.13"   Gusts: NA
Location:  36.1012°N, 109.584°W
Report Text: KRQE 181521Z AUTO 00000KT 9SM SCT022 OVC060 00/M03 A3013 RMK AO2 T00001028 TSNO
Loading
Personal Weather Stations






























Interactive Weather Map New forecast layout! Learn more

10-Day Weather Forecast

Advertisements
Track Severe Weather on mobile